Time;durP1;ratioP1;P1;durP2;ratioP2;P2;SDS_P1;SDS_P2;PMS_P1;PMS_P2;Temp;Humidity;BMP_temperature;BMP_pressure;BME280_temperature;BME280_humidity;BME280_pressure;Samples;Min_cycle;Max_cycle;Signal;HPM_P1;HPM_P2
2023/10/04 00:00:45;;;;;;;;;;;24.40;74.90;;;;;;5009339;28;42928;-82
2023/10/04 00:03:10;;;;;;;;;;;24.60;75.60;;;;;;5026545;28;43443;-80
2023/10/04 00:05:36;;;;;;;;;;;24.60;75.10;;;;;;5024932;28;42857;-81
2023/10/04 00:08:02;;;;;;;;;;;24.40;75.10;;;;;;5026744;28;44461;-81
2023/10/04 00:10:28;;;;;;;;;;;24.40;74.70;;;;;;5027094;28;42926;-82
2023/10/04 00:12:54;;;;;;;;;;;24.60;74.50;;;;;;5027197;28;43158;-82
2023/10/04 00:15:20;;;;;;;;;;;24.60;75.20;;;;;;5026609;28;42962;-80
2023/10/04 00:17:46;;;;;;;;;;;24.30;74.90;;;;;;5027228;28;43695;-82
2023/10/04 00:20:13;;;;;;;;;;;24.40;74.90;;;;;;5027210;28;42917;-81
2023/10/04 00:22:40;;;;;;;;;;;24.90;75.10;;;;;;5026048;28;42963;-80
2023/10/04 00:25:11;;;;;;;;;;;24.40;74.90;;;;;;5026882;28;42890;-80
2023/10/04 00:27:42;;;;;;;;;;;24.60;72.80;;;;;;5026362;28;42874;-80
2023/10/04 00:30:18;;;;;;;;;;;24.40;75.20;;;;;;5026549;28;42892;-80
2023/10/04 00:32:47;;;;;;;;;;;24.50;74.90;;;;;;5026803;28;43162;-81
2023/10/04 00:35:17;;;;;;;;;;;24.40;73.00;;;;;;5025739;28;43022;-80
2023/10/04 00:37:46;;;;;;;;;;;24.10;75.20;;;;;;5044447;28;43739;-82
2023/10/04 00:40:14;;;;;;;;;;;24.30;75.40;;;;;;5032156;28;43372;-80
2023/10/04 00:42:40;;;;;;;;;;;24.70;75.40;;;;;;5042731;28;42942;-80
2023/10/04 00:45:06;;;;;;;;;;;24.40;75.20;;;;;;5032657;28;42973;-80
2023/10/04 00:47:32;;;;;;;;;;;24.50;74.80;;;;;;5026177;28;43126;-80
2023/10/04 00:50:01;;;;;;;;;;;24.50;75.90;;;;;;5027994;28;43201;-80
2023/10/04 00:52:26;;;;;;;;;;;24.20;75.70;;;;;;5038957;28;42951;-80
2023/10/04 00:54:53;;;;;;;;;;;24.10;75.20;;;;;;5031294;28;42849;-80
2023/10/04 00:57:19;;;;;;;;;;;24.70;75.40;;;;;;5047889;28;42865;-81
2023/10/04 00:59:45;;;;;;;;;;;24.70;75.40;;;;;;5027197;28;43203;-81
2023/10/04 01:02:10;;;;;;;;;;;24.60;74.80;;;;;;5025551;28;44317;-82
2023/10/04 01:04:36;;;;;;;;;;;24.50;75.50;;;;;;5025802;28;42791;-80
2023/10/04 01:07:01;;;;;;;;;;;24.60;75.30;;;;;;5026035;28;42780;-82
2023/10/04 01:09:28;;;;;;;;;;;24.40;76.40;;;;;;5025922;28;43019;-82
2023/10/04 01:11:53;;;;;;;;;;;24.10;75.90;;;;;;5025951;28;42894;-81
2023/10/04 01:14:25;;;;;;;;;;;24.40;75.60;;;;;;5024215;28;43241;-81
2023/10/04 01:16:54;;;;;;;;;;;24.40;75.60;;;;;;5010803;28;43667;-80
2023/10/04 01:19:22;;;;;;;;;;;24.40;73.60;;;;;;5025986;28;42961;-80
2023/10/04 01:21:48;;;;;;;;;;;24.30;75.90;;;;;;5009347;28;43703;-80
2023/10/04 01:24:14;;;;;;;;;;;24.30;76.00;;;;;;5024570;28;43193;-79
2023/10/04 01:26:39;;;;;;;;;;;24.40;75.40;;;;;;5026299;28;43628;-79
2023/10/04 01:29:11;;;;;;;;;;;24.40;75.50;;;;;;5025446;28;42967;-80
2023/10/04 01:31:37;;;;;;;;;;;24.50;75.80;;;;;;5025049;28;44531;-80
2023/10/04 01:34:03;;;;;;;;;;;24.60;76.00;;;;;;5057550;28;42918;-80
2023/10/04 01:36:32;;;;;;;;;;;24.50;76.00;;;;;;5025875;28;43566;-79
2023/10/04 01:38:57;;;;;;;;;;;24.40;75.70;;;;;;5025491;28;43024;-79
2023/10/04 01:41:24;;;;;;;;;;;24.20;76.10;;;;;;5029647;28;43588;-80
2023/10/04 01:43:53;;;;;;;;;;;24.30;76.10;;;;;;5018936;28;43160;-79
2023/10/04 01:46:18;;;;;;;;;;;23.80;75.70;;;;;;5037667;28;44108;-80
2023/10/04 01:48:44;;;;;;;;;;;24.40;75.60;;;;;;5044945;28;42948;-80
2023/10/04 01:51:10;;;;;;;;;;;24.40;76.20;;;;;;5026887;28;43408;-79
2023/10/04 01:53:35;;;;;;;;;;;24.40;76.20;;;;;;5024524;28;42885;-80
2023/10/04 01:56:07;;;;;;;;;;;24.50;76.40;;;;;;5024450;28;44382;-79
2023/10/04 01:58:33;;;;;;;;;;;24.40;75.40;;;;;;5025077;28;43192;-80
2023/10/04 02:01:02;;;;;;;;;;;24.40;76.60;;;;;;5025186;28;43547;-79
2023/10/04 02:03:28;;;;;;;;;;;24.30;74.50;;;;;;5024754;28;42960;-80
2023/10/04 02:05:59;;;;;;;;;;;24.60;76.40;;;;;;5024045;28;43093;-80
2023/10/04 02:08:26;;;;;;;;;;;24.50;74.50;;;;;;5024321;28;42909;-80
2023/10/04 02:10:52;;;;;;;;;;;24.40;76.40;;;;;;5024873;28;43400;-80
2023/10/04 02:13:19;;;;;;;;;;;24.50;76.50;;;;;;5023832;28;43008;-80
2023/10/04 02:15:48;;;;;;;;;;;24.60;76.70;;;;;;5023877;28;43735;-80
2023/10/04 02:18:15;;;;;;;;;;;24.50;76.60;;;;;;5024347;28;42936;-80
2023/10/04 02:20:49;;;;;;;;;;;24.60;76.70;;;;;;5024559;28;42867;-80
2023/10/04 02:23:15;;;;;;;;;;;24.50;76.60;;;;;;5024402;28;43072;-80
2023/10/04 02:25:41;;;;;;;;;;;24.40;76.60;;;;;;5022687;28;43463;-80
2023/10/04 02:28:11;;;;;;;;;;;24.40;76.60;;;;;;5023924;28;42935;-80
2023/10/04 02:30:40;;;;;;;;;;;24.50;76.60;;;;;;5023253;28;44035;-80
2023/10/04 02:33:13;;;;;;;;;;;24.40;74.20;;;;;;5025489;28;42831;-80
2023/10/04 02:35:45;;;;;;;;;;;24.40;76.70;;;;;;5023794;28;43708;-80
2023/10/04 02:38:19;;;;;;;;;;;24.60;74.50;;;;;;5024898;28;43000;-80
2023/10/04 02:40:51;;;;;;;;;;;24.40;76.40;;;;;;5023856;28;43064;-80
2023/10/04 02:43:17;;;;;;;;;;;24.60;73.90;;;;;;5024650;28;43030;-80
2023/10/04 02:45:43;;;;;;;;;;;24.70;76.20;;;;;;5022672;28;43508;-80
2023/10/04 02:48:11;;;;;;;;;;;24.40;76.10;;;;;;5023635;28;43121;-80
2023/10/04 02:50:41;;;;;;;;;;;24.80;74.40;;;;;;5006047;28;43157;-80
2023/10/04 02:53:14;;;;;;;;;;;24.80;75.00;;;;;;5008603;28;43054;-80
2023/10/04 02:55:39;;;;;;;;;;;24.60;76.50;;;;;;5028169;28;43625;-80
2023/10/04 02:58:06;;;;;;;;;;;24.60;76.50;;;;;;5040814;28;42948;-79
2023/10/04 03:00:33;;;;;;;;;;;24.60;77.00;;;;;;5034600;28;43052;-79
2023/10/04 03:02:59;;;;;;;;;;;24.50;76.40;;;;;;5005301;28;42952;-79
2023/10/04 03:05:28;;;;;;;;;;;24.60;76.90;;;;;;5025161;28;42956;-80
2023/10/04 03:07:54;;;;;;;;;;;24.60;77.00;;;;;;5042881;28;43220;-80
2023/10/04 03:10:26;;;;;;;;;;;24.60;77.10;;;;;;5036252;28;42914;-80
2023/10/04 03:12:52;;;;;;;;;;;24.60;75.30;;;;;;5022853;28;43131;-80
2023/10/04 03:15:18;;;;;;;;;;;24.40;76.90;;;;;;5024003;28;42995;-80
2023/10/04 03:17:44;;;;;;;;;;;24.40;76.80;;;;;;5022910;28;43076;-80
2023/10/04 03:20:20;;;;;;;;;;;24.60;77.00;;;;;;5037398;28;43439;-80
2023/10/04 03:22:49;;;;;;;;;;;24.50;76.50;;;;;;5023354;28;42888;-80
2023/10/04 03:25:15;;;;;;;;;;;24.40;74.30;;;;;;5010660;28;45495;-79
2023/10/04 03:27:44;;;;;;;;;;;24.30;76.40;;;;;;5023665;28;42999;-79
2023/10/04 03:30:14;;;;;;;;;;;24.40;76.50;;;;;;5022937;28;43765;-80
2023/10/04 03:32:52;;;;;;;;;;;24.50;75.70;;;;;;5023957;28;42960;-80
2023/10/04 03:35:20;;;;;;;;;;;24.50;75.80;;;;;;5028642;28;43607;-80
2023/10/04 03:37:58;;;;;;;;;;;24.50;76.30;;;;;;5029235;28;42897;-80
2023/10/04 03:40:24;;;;;;;;;;;24.30;76.10;;;;;;5035374;28;43115;-80
2023/10/04 03:42:50;;;;;;;;;;;24.40;76.20;;;;;;5025613;28;42982;-80
2023/10/04 03:45:18;;;;;;;;;;;24.20;76.10;;;;;;5024892;28;43508;-81
2023/10/04 03:47:50;;;;;;;;;;;24.40;76.00;;;;;;5023882;28;42722;-80
2023/10/04 03:50:17;;;;;;;;;;;24.50;76.20;;;;;;5031401;28;43519;-80
2023/10/04 03:52:43;;;;;;;;;;;24.40;76.20;;;;;;5023683;28;42884;-80
2023/10/04 03:55:09;;;;;;;;;;;24.50;76.10;;;;;;5023677;28;42827;-80
2023/10/04 03:57:34;;;;;;;;;;;24.40;75.50;;;;;;5024023;28;42845;-80
2023/10/04 04:00:06;;;;;;;;;;;24.50;75.80;;;;;;5023327;28;42833;-80
2023/10/04 04:02:32;;;;;;;;;;;24.40;75.70;;;;;;5022321;28;42767;-80
2023/10/04 04:04:58;;;;;;;;;;;24.60;75.90;;;;;;5023004;28;43337;-80
2023/10/04 04:07:26;;;;;;;;;;;24.50;75.90;;;;;;5035425;28;42916;-80
2023/10/04 04:09:52;;;;;;;;;;;24.30;75.90;;;;;;5003761;28;43466;-80
2023/10/04 04:12:17;;;;;;;;;;;24.60;76.00;;;;;;5010209;28;43473;-80
2023/10/04 04:14:43;;;;;;;;;;;25.00;75.80;;;;;;5012369;28;44395;-80
2023/10/04 04:17:09;;;;;;;;;;;24.60;75.10;;;;;;5024902;28;43152;-80
2023/10/04 04:19:34;;;;;;;;;;;24.50;75.50;;;;;;5024839;28;42987;-80
2023/10/04 04:22:01;;;;;;;;;;;24.40;75.70;;;;;;5037163;28;43285;-80
2023/10/04 04:24:27;;;;;;;;;;;24.50;75.90;;;;;;5038775;28;42932;-80
2023/10/04 04:26:58;;;;;;;;;;;24.40;75.40;;;;;;5026663;28;43062;-80
2023/10/04 04:29:23;;;;;;;;;;;24.60;76.10;;;;;;5025229;28;43909;-80
2023/10/04 04:31:52;;;;;;;;;;;24.40;75.80;;;;;;5026596;28;42972;-79
2023/10/04 04:34:18;;;;;;;;;;;24.50;75.50;;;;;;5040530;28;44570;-80
2023/10/04 04:36:46;;;;;;;;;;;24.60;75.90;;;;;;5009160;28;42997;-80
2023/10/04 04:39:13;;;;;;;;;;;24.40;76.70;;;;;;5025669;28;43624;-80
2023/10/04 04:41:39;;;;;;;;;;;24.10;76.90;;;;;;5027696;28;43086;-80
2023/10/04 04:44:07;;;;;;;;;;;24.10;76.80;;;;;;5025457;28;42897;-81
2023/10/04 04:46:34;;;;;;;;;;;24.30;76.90;;;;;;5032803;28;43025;-81
2023/10/04 04:49:00;;;;;;;;;;;24.10;77.50;;;;;;5022594;28;43197;-80
2023/10/04 04:51:25;;;;;;;;;;;24.20;77.80;;;;;;5035903;28;42903;-80
2023/10/04 04:53:51;;;;;;;;;;;24.10;77.70;;;;;;5035786;28;42987;-82
2023/10/04 04:56:18;;;;;;;;;;;24.30;77.40;;;;;;5017061;28;43001;-81
2023/10/04 04:58:44;;;;;;;;;;;24.20;77.50;;;;;;5018025;28;43505;-80
2023/10/04 05:01:13;;;;;;;;;;;24.40;76.90;;;;;;5034622;28;43255;-80
2023/10/04 05:03:42;;;;;;;;;;;24.30;77.40;;;;;;5028535;28;43459;-79
2023/10/04 05:06:12;;;;;;;;;;;24.40;77.10;;;;;;5024301;28;43769;-79
2023/10/04 05:08:38;;;;;;;;;;;24.40;77.30;;;;;;5030238;28;42891;-79
2023/10/04 05:11:06;;;;;;;;;;;24.30;77.00;;;;;;5017970;28;43063;-79
2023/10/04 05:13:32;;;;;;;;;;;24.40;74.80;;;;;;5032324;28;43112;-79
2023/10/04 05:15:59;;;;;;;;;;;24.40;76.90;;;;;;5020926;28;43046;-80
2023/10/04 05:18:26;;;;;;;;;;;24.30;76.80;;;;;;5026817;28;43559;-79
2023/10/04 05:20:55;;;;;;;;;;;24.40;77.70;;;;;;5026217;28;43048;-79
2023/10/04 05:23:24;;;;;;;;;;;24.50;77.80;;;;;;5026349;28;44362;-79
2023/10/04 05:25:50;;;;;;;;;;;24.30;78.10;;;;;;5026740;28;43083;-79
2023/10/04 05:28:16;;;;;;;;;;;24.30;77.90;;;;;;5024638;28;43655;-79
2023/10/04 05:30:43;;;;;;;;;;;24.30;77.50;;;;;;5026018;28;42803;-79
2023/10/04 05:33:10;;;;;;;;;;;24.50;77.80;;;;;;5025587;28;44066;-79
2023/10/04 05:35:36;;;;;;;;;;;24.40;77.80;;;;;;5025516;28;42936;-79
2023/10/04 05:38:03;;;;;;;;;;;24.40;77.70;;;;;;5044970;28;42893;-80
2023/10/04 05:40:34;;;;;;;;;;;24.50;77.70;;;;;;5046012;28;42963;-80
2023/10/04 05:42:59;;;;;;;;;;;24.40;75.40;;;;;;5006078;28;43407;-79
2023/10/04 05:45:25;;;;;;;;;;;24.40;77.20;;;;;;5023174;28;43119;-80
2023/10/04 05:47:51;;;;;;;;;;;24.40;77.80;;;;;;5031733;28;43808;-79
2023/10/04 05:50:18;;;;;;;;;;;24.40;77.70;;;;;;5045195;28;43186;-79
2023/10/04 05:52:47;;;;;;;;;;;24.40;77.50;;;;;;5008473;28;43614;-80
2023/10/04 05:55:13;;;;;;;;;;;24.20;77.70;;;;;;5024689;28;43288;-80
2023/10/04 05:57:39;;;;;;;;;;;24.40;77.90;;;;;;5037824;28;43392;-80
2023/10/04 06:02:48;;;;;;;;;;;24.30;77.50;;;;;;5025760;28;43394;-79
2023/10/04 06:05:14;;;;;;;;;;;24.20;78.30;;;;;;5024062;28;44108;-79
2023/10/04 06:07:40;;;;;;;;;;;24.20;78.30;;;;;;5025371;28;42862;-79
2023/10/04 06:10:06;;;;;;;;;;;24.40;77.80;;;;;;5035624;28;42835;-80
2023/10/04 06:12:31;;;;;;;;;;;24.20;77.50;;;;;;5024549;28;42908;-81
2023/10/04 06:14:57;;;;;;;;;;;24.30;78.10;;;;;;5028509;28;42979;-81
2023/10/04 06:17:23;;;;;;;;;;;24.10;77.90;;;;;;5029598;28;43942;-80
2023/10/04 06:19:48;;;;;;;;;;;24.40;78.10;;;;;;5031062;28;43192;-80
2023/10/04 06:22:14;;;;;;;;;;;24.40;77.60;;;;;;5027516;28;43047;-80
2023/10/04 06:24:39;;;;;;;;;;;24.40;78.10;;;;;;5032393;28;42960;-80
2023/10/04 06:27:05;;;;;;;;;;;24.30;77.80;;;;;;5030404;28;44471;-81
2023/10/04 06:29:30;;;;;;;;;;;24.40;78.20;;;;;;5036593;28;43001;-80
2023/10/04 06:31:56;;;;;;;;;;;24.30;78.10;;;;;;5041779;28;43633;-80
2023/10/04 06:34:22;;;;;;;;;;;24.50;78.40;;;;;;5041193;28;42849;-80
2023/10/04 06:36:49;;;;;;;;;;;24.30;78.10;;;;;;5026242;28;42903;-80
2023/10/04 06:39:14;;;;;;;;;;;24.30;78.30;;;;;;5027018;28;42816;-81
2023/10/04 06:41:40;;;;;;;;;;;24.40;78.60;;;;;;5029593;28;43534;-80
2023/10/04 06:44:08;;;;;;;;;;;24.30;78.00;;;;;;5042958;28;42895;-79
2023/10/04 06:46:33;;;;;;;;;;;24.10;78.20;;;;;;5028844;28;42916;-80
2023/10/04 06:48:59;;;;;;;;;;;24.30;78.90;;;;;;5043093;28;43165;-81
2023/10/04 06:51:24;;;;;;;;;;;24.30;78.80;;;;;;5039151;28;43402;-81
2023/10/04 06:53:50;;;;;;;;;;;24.30;78.10;;;;;;5024233;28;42993;-80
2023/10/04 06:56:15;;;;;;;;;;;24.20;78.30;;;;;;5029629;28;42936;-80
2023/10/04 06:58:41;;;;;;;;;;;24.40;78.70;;;;;;5004505;28;42989;-81
2023/10/04 07:01:06;;;;;;;;;;;24.10;79.00;;;;;;5018711;28;43613;-80
2023/10/04 07:03:32;;;;;;;;;;;24.20;79.30;;;;;;5026273;28;42976;-80
2023/10/04 07:05:58;;;;;;;;;;;24.30;79.30;;;;;;5026121;28;43800;-79
2023/10/04 07:08:29;;;;;;;;;;;24.30;79.60;;;;;;5031798;28;43058;-80
2023/10/04 07:10:54;;;;;;;;;;;24.30;79.70;;;;;;5037093;28;43472;-79
2023/10/04 07:13:20;;;;;;;;;;;24.20;79.90;;;;;;5023527;28;42838;-80
2023/10/04 07:15:45;;;;;;;;;;;24.10;80.00;;;;;;5023475;28;42913;-80
2023/10/04 07:18:11;;;;;;;;;;;24.10;79.40;;;;;;5040418;28;43018;-80
2023/10/04 07:20:38;;;;;;;;;;;24.10;80.50;;;;;;5041477;28;44275;-80
2023/10/04 07:23:05;;;;;;;;;;;24.20;80.20;;;;;;5027123;28;42748;-79
2023/10/04 07:25:32;;;;;;;;;;;24.20;80.00;;;;;;5025276;28;42806;-79
2023/10/04 07:28:02;;;;;;;;;;;24.40;80.50;;;;;;5028838;28;43039;-79
2023/10/04 07:30:28;;;;;;;;;;;24.10;77.80;;;;;;5042480;28;43478;-80
2023/10/04 07:32:53;;;;;;;;;;;24.00;80.50;;;;;;5027786;28;43095;-80
2023/10/04 07:35:23;;;;;;;;;;;24.20;81.30;;;;;;5022773;28;43458;-80
2023/10/04 07:37:48;;;;;;;;;;;23.90;81.30;;;;;;5023384;28;42888;-79
2023/10/04 07:40:15;;;;;;;;;;;24.20;81.60;;;;;;5023367;28;42892;-79
2023/10/04 07:42:42;;;;;;;;;;;24.00;81.90;;;;;;5023060;28;42853;-79
2023/10/04 07:45:08;;;;;;;;;;;24.20;82.10;;;;;;5023048;28;42918;-79
2023/10/04 07:47:37;;;;;;;;;;;24.20;81.30;;;;;;5023672;28;43054;-79
2023/10/04 07:50:05;;;;;;;;;;;24.10;79.70;;;;;;5024293;28;43526;-80
2023/10/04 07:52:31;;;;;;;;;;;24.00;82.20;;;;;;5026175;28;43099;-78
2023/10/04 07:54:59;;;;;;;;;;;23.90;82.40;;;;;;5026540;28;43518;-79
2023/10/04 07:57:26;;;;;;;;;;;24.00;82.70;;;;;;5037192;28;43070;-80
2023/10/04 07:59:51;;;;;;;;;;;24.00;83.00;;;;;;5038369;28;43561;-79
2023/10/04 08:02:17;;;;;;;;;;;24.10;82.80;;;;;;5030016;28;43034;-79
2023/10/04 08:04:45;;;;;;;;;;;24.20;83.00;;;;;;5027050;28;44457;-79
2023/10/04 08:07:12;;;;;;;;;;;24.00;83.20;;;;;;5042211;28;42953;-79
2023/10/04 08:09:38;;;;;;;;;;;23.90;82.90;;;;;;5026954;28;43665;-80
2023/10/04 08:12:07;;;;;;;;;;;24.00;83.10;;;;;;5027134;28;42921;-79
2023/10/04 08:14:33;;;;;;;;;;;24.00;82.40;;;;;;5026593;28;43007;-79
2023/10/04 08:16:59;;;;;;;;;;;24.00;82.90;;;;;;5026642;28;42857;-80
2023/10/04 08:19:26;;;;;;;;;;;24.10;83.40;;;;;;5026883;28;44258;-80
2023/10/04 08:21:51;;;;;;;;;;;24.00;83.40;;;;;;5026826;28;42914;-80
2023/10/04 08:24:17;;;;;;;;;;;24.00;83.70;;;;;;5026953;28;43485;-79
2023/10/04 08:26:43;;;;;;;;;;;23.90;83.50;;;;;;5026863;28;43021;-80
2023/10/04 08:29:10;;;;;;;;;;;24.20;83.40;;;;;;5026294;28;43626;-79
2023/10/04 08:31:36;;;;;;;;;;;24.40;84.10;;;;;;5026254;28;42771;-79
2023/10/04 08:34:02;;;;;;;;;;;24.20;83.80;;;;;;5025885;28;43528;-80
2023/10/04 08:36:28;;;;;;;;;;;24.20;84.00;;;;;;5023902;28;43668;-80
2023/10/04 08:38:54;;;;;;;;;;;24.10;84.10;;;;;;5005284;28;42928;-80
2023/10/04 08:41:20;;;;;;;;;;;24.20;84.30;;;;;;5002133;28;43839;-79
2023/10/04 08:43:47;;;;;;;;;;;24.30;84.40;;;;;;5022815;28;43479;-79
2023/10/04 08:46:15;;;;;;;;;;;24.20;83.80;;;;;;5024720;28;42866;-79
2023/10/04 08:48:41;;;;;;;;;;;24.30;84.20;;;;;;5025638;28;43075;-80
2023/10/04 08:51:33;;;;;;;;;;;23.90;83.40;;;;;;5024966;28;42977;-79
2023/10/04 08:54:18;;;;;;;;;;;24.30;82.00;;;;;;5023561;28;43514;-80
2023/10/04 08:56:48;;;;;;;;;;;24.30;82.40;;;;;;5026057;28;43033;-80
2023/10/04 08:59:14;;;;;;;;;;;24.30;82.40;;;;;;5038870;28;43032;-80
2023/10/04 09:01:40;;;;;;;;;;;24.30;84.90;;;;;;5041547;28;42883;-79
2023/10/04 09:04:06;;;;;;;;;;;24.10;84.90;;;;;;5044103;28;43678;-79
2023/10/04 09:06:32;;;;;;;;;;;24.30;84.80;;;;;;5032711;28;43060;-80
2023/10/04 09:08:57;;;;;;;;;;;24.30;84.90;;;;;;5028521;28;43682;-79
2023/10/04 09:11:23;;;;;;;;;;;24.30;85.10;;;;;;5035239;28;42905;-79
2023/10/04 09:13:49;;;;;;;;;;;24.20;85.30;;;;;;5027901;28;43881;-79
2023/10/04 09:16:19;;;;;;;;;;;24.20;85.50;;;;;;5025262;28;43005;-79
2023/10/04 09:18:44;;;;;;;;;;;24.30;83.30;;;;;;5025346;28;44346;-78
2023/10/04 09:21:13;;;;;;;;;;;24.30;85.70;;;;;;5013856;28;42986;-80
2023/10/04 09:23:39;;;;;;;;;;;24.40;83.60;;;;;;5028085;28;43027;-79
2023/10/04 09:26:13;;;;;;;;;;;24.30;85.80;;;;;;5034070;28;42892;-79
2023/10/04 09:28:40;;;;;;;;;;;24.20;85.30;;;;;;5028772;28;42925;-79
2023/10/04 09:31:09;;;;;;;;;;;24.10;85.90;;;;;;5025745;28;42987;-80
2023/10/04 09:33:35;;;;;;;;;;;24.30;83.70;;;;;;5036688;28;43654;-79
2023/10/04 09:36:01;;;;;;;;;;;24.30;85.50;;;;;;5024472;28;42978;-80
2023/10/04 09:38:29;;;;;;;;;;;24.40;85.80;;;;;;5043210;28;43769;-79
2023/10/04 09:40:59;;;;;;;;;;;24.30;85.40;;;;;;5034474;28;42941;-80
2023/10/04 09:43:35;;;;;;;;;;;24.30;83.60;;;;;;5025088;28;42945;-79
2023/10/04 09:46:01;;;;;;;;;;;24.20;83.50;;;;;;5029766;28;43022;-80
2023/10/04 09:48:30;;;;;;;;;;;24.30;86.10;;;;;;5042003;28;43164;-79
2023/10/04 09:51:00;;;;;;;;;;;24.20;83.50;;;;;;5025650;28;42970;-79
2023/10/04 09:53:25;;;;;;;;;;;24.20;83.10;;;;;;5025406;28;43816;-78
2023/10/04 09:55:52;;;;;;;;;;;24.40;85.60;;;;;;5025313;28;43039;-80
2023/10/04 09:58:20;;;;;;;;;;;24.30;85.10;;;;;;5024133;28;43555;-80
2023/10/04 10:00:46;;;;;;;;;;;24.20;85.30;;;;;;5031845;28;42902;-79
2023/10/04 10:03:13;;;;;;;;;;;24.20;85.00;;;;;;5026566;28;43575;-78
2023/10/04 10:05:40;;;;;;;;;;;24.40;85.00;;;;;;5024960;28;43590;-79
2023/10/04 10:08:08;;;;;;;;;;;24.60;85.10;;;;;;5025936;28;44446;-79
2023/10/04 10:10:37;;;;;;;;;;;24.30;84.90;;;;;;5022941;28;42980;-79
2023/10/04 10:13:04;;;;;;;;;;;24.30;85.00;;;;;;5032325;28;42998;-80
2023/10/04 10:15:31;;;;;;;;;;;24.50;84.80;;;;;;5010796;28;42900;-79
2023/10/04 10:17:56;;;;;;;;;;;24.40;85.30;;;;;;5026442;28;42917;-80
2023/10/04 10:20:22;;;;;;;;;;;24.30;85.30;;;;;;5041298;28;43009;-79
2023/10/04 10:22:57;;;;;;;;;;;24.20;85.00;;;;;;5024811;28;43757;-79
2023/10/04 10:25:23;;;;;;;;;;;24.10;82.70;;;;;;5025226;28;42994;-80
2023/10/04 10:27:49;;;;;;;;;;;24.30;84.10;;;;;;5029898;28;42924;-79
2023/10/04 10:30:18;;;;;;;;;;;24.30;84.60;;;;;;5005122;28;43342;-80
2023/10/04 10:32:54;;;;;;;;;;;24.40;82.40;;;;;;5030268;28;43031;-80
2023/10/04 10:35:39;;;;;;;;;;;24.30;82.70;;;;;;5044580;28;43065;-79
2023/10/04 10:38:23;;;;;;;;;;;24.10;82.40;;;;;;5052025;28;44548;-79
2023/10/04 10:40:49;;;;;;;;;;;24.40;82.20;;;;;;5020295;28;42925;-81
2023/10/04 10:43:15;;;;;;;;;;;24.90;84.70;;;;;;5023486;28;43487;-80
2023/10/04 10:45:41;;;;;;;;;;;24.50;83.80;;;;;;5023820;28;42968;-80
2023/10/04 10:48:08;;;;;;;;;;;24.30;84.20;;;;;;5005046;28;42895;-80
2023/10/04 10:50:35;;;;;;;;;;;24.30;84.40;;;;;;5019514;28;42884;-80
2023/10/04 10:53:09;;;;;;;;;;;24.30;84.60;;;;;;5006230;28;45655;-79
2023/10/04 10:55:35;;;;;;;;;;;24.50;82.40;;;;;;5026659;28;42901;-80
2023/10/04 10:58:00;;;;;;;;;;;25.20;85.10;;;;;;5024486;28;43375;-79
2023/10/04 11:00:31;;;;;;;;;;;24.30;84.50;;;;;;5006200;28;43120;-80
2023/10/04 11:02:57;;;;;;;;;;;24.40;84.00;;;;;;5023497;28;43025;-79
2023/10/04 11:05:23;;;;;;;;;;;24.50;83.90;;;;;;5024896;28;42871;-79
2023/10/04 11:07:50;;;;;;;;;;;24.50;83.40;;;;;;5025442;28;43328;-79
2023/10/04 11:10:16;;;;;;;;;;;25.00;84.20;;;;;;5013730;28;43006;-80
2023/10/04 11:12:42;;;;;;;;;;;24.40;84.00;;;;;;5027582;28;43542;-80
2023/10/04 11:15:08;;;;;;;;;;;24.20;84.10;;;;;;5011251;28;43014;-81
2023/10/04 11:17:36;;;;;;;;;;;24.30;83.10;;;;;;5029882;28;43272;-80
2023/10/04 11:20:11;;;;;;;;;;;24.20;84.10;;;;;;5032360;28;42860;-80
2023/10/04 11:22:37;;;;;;;;;;;24.40;82.10;;;;;;5024203;28;42989;-79
2023/10/04 11:25:03;;;;;;;;;;;24.40;84.50;;;;;;5023731;28;43004;-80
2023/10/04 11:27:29;;;;;;;;;;;24.40;83.80;;;;;;5038883;28;43392;-80
2023/10/04 11:29:55;;;;;;;;;;;24.50;83.50;;;;;;5036020;28;43159;-79
2023/10/04 11:32:21;;;;;;;;;;;24.40;83.60;;;;;;5045077;28;43625;-80
2023/10/04 11:34:47;;;;;;;;;;;24.30;83.50;;;;;;5045902;28;43039;-79
2023/10/04 11:37:15;;;;;;;;;;;24.30;83.60;;;;;;5045817;28;43335;-79
2023/10/04 11:39:43;;;;;;;;;;;24.50;81.50;;;;;;5037857;28;43078;-80
2023/10/04 11:42:24;;;;;;;;;;;24.50;83.50;;;;;;5044222;28;43542;-81
2023/10/04 11:44:50;;;;;;;;;;;24.30;80.70;;;;;;5028561;28;42911;-79
2023/10/04 11:47:34;;;;;;;;;;;24.60;83.00;;;;;;5045380;28;43039;-79
2023/10/04 11:50:01;;;;;;;;;;;24.40;80.60;;;;;;5036262;28;42961;-79
2023/10/04 11:52:32;;;;;;;;;;;24.40;82.40;;;;;;5044966;28;42893;-79
2023/10/04 11:54:58;;;;;;;;;;;24.40;80.40;;;;;;5058412;28;42840;-78
2023/10/04 11:57:28;;;;;;;;;;;24.50;82.70;;;;;;5054438;28;43296;-79
2023/10/04 11:59:56;;;;;;;;;;;24.30;82.80;;;;;;5026297;28;42996;-79
2023/10/04 12:02:22;;;;;;;;;;;24.40;82.50;;;;;;5033734;28;43267;-79
2023/10/04 12:04:48;;;;;;;;;;;24.60;82.20;;;;;;5025930;28;43003;-80
2023/10/04 12:07:13;;;;;;;;;;;24.60;81.50;;;;;;5024977;28;45088;-79
2023/10/04 12:09:39;;;;;;;;;;;24.50;81.60;;;;;;5025870;28;42994;-80
2023/10/04 12:12:07;;;;;;;;;;;24.60;81.40;;;;;;5027996;28;43600;-80
2023/10/04 12:14:34;;;;;;;;;;;24.60;80.90;;;;;;5037119;28;43326;-79
2023/10/04 12:17:03;;;;;;;;;;;24.20;81.00;;;;;;5039939;28;43408;-79
2023/10/04 12:19:30;;;;;;;;;;;24.40;81.20;;;;;;5033533;28;42995;-80
2023/10/04 12:21:56;;;;;;;;;;;24.40;81.10;;;;;;5046755;28;43007;-79
2023/10/04 12:24:22;;;;;;;;;;;24.50;81.00;;;;;;5043876;28;42949;-79
2023/10/04 12:26:48;;;;;;;;;;;24.40;80.70;;;;;;5025971;28;43418;-80
2023/10/04 12:29:14;;;;;;;;;;;24.30;80.30;;;;;;5030251;28;42944;-79
2023/10/04 12:31:39;;;;;;;;;;;24.50;80.40;;;;;;5042826;28;43611;-79
2023/10/04 12:34:05;;;;;;;;;;;24.40;80.20;;;;;;5037541;28;43002;-79
2023/10/04 12:36:31;;;;;;;;;;;24.40;79.80;;;;;;5034222;28;43831;-80
2023/10/04 12:38:56;;;;;;;;;;;24.40;79.70;;;;;;5044551;28;43007;-79
2023/10/04 12:41:22;;;;;;;;;;;24.30;79.00;;;;;;5029512;28;43951;-79
2023/10/04 12:43:48;;;;;;;;;;;24.30;78.70;;;;;;5028950;28;42895;-79
2023/10/04 12:46:13;;;;;;;;;;;24.40;79.40;;;;;;5033959;28;43488;-80
2023/10/04 12:48:39;;;;;;;;;;;24.40;78.60;;;;;;5034337;28;43180;-79
2023/10/04 12:51:05;;;;;;;;;;;24.40;78.40;;;;;;5032840;28;44301;-80
2023/10/04 12:53:31;;;;;;;;;;;24.40;78.80;;;;;;5034296;28;43803;-80
2023/10/04 12:55:57;;;;;;;;;;;24.50;78.30;;;;;;5042781;28;42976;-80
2023/10/04 12:58:22;;;;;;;;;;;24.40;78.70;;;;;;5046230;28;42992;-80
2023/10/04 13:00:52;;;;;;;;;;;24.40;78.70;;;;;;5036128;28;43020;-80
2023/10/04 13:03:18;;;;;;;;;;;24.40;78.40;;;;;;5033464;28;42938;-79
2023/10/04 13:05:44;;;;;;;;;;;24.30;78.00;;;;;;5035404;28;43109;-79
2023/10/04 13:08:15;;;;;;;;;;;24.40;78.80;;;;;;5029191;28;42983;-79
2023/10/04 13:10:42;;;;;;;;;;;24.30;78.30;;;;;;5033615;28;42992;-80
2023/10/04 13:13:07;;;;;;;;;;;24.40;78.10;;;;;;5026793;28;43248;-79
2023/10/04 13:15:34;;;;;;;;;;;24.80;78.40;;;;;;5035707;28;42954;-80
2023/10/04 13:18:06;;;;;;;;;;;23.60;78.10;;;;;;5029722;28;43205;-79
2023/10/04 13:20:32;;;;;;;;;;;24.40;78.10;;;;;;5026148;28;43016;-79
2023/10/04 13:22:58;;;;;;;;;;;24.50;78.00;;;;;;5034661;28;43176;-80
2023/10/04 13:25:24;;;;;;;;;;;24.60;77.90;;;;;;5028919;28;43536;-80
2023/10/04 13:27:50;;;;;;;;;;;24.40;78.30;;;;;;5007772;28;43877;-80
2023/10/04 13:30:16;;;;;;;;;;;22.90;76.70;;;;;;5034881;28;43067;-80
2023/10/04 13:32:47;;;;;;;;;;;24.50;77.70;;;;;;5040840;28;43152;-79
2023/10/04 13:35:16;;;;;;;;;;;24.60;77.20;;;;;;5023641;28;43017;-80
2023/10/04 13:37:45;;;;;;;;;;;24.40;77.70;;;;;;5029732;28;42979;-79
2023/10/04 13:40:19;;;;;;;;;;;24.40;77.80;;;;;;5029370;28;43397;-80
2023/10/04 13:42:51;;;;;;;;;;;24.40;77.30;;;;;;5025325;28;42940;-80
2023/10/04 13:45:17;;;;;;;;;;;24.30;75.10;;;;;;5025829;28;42874;-79
2023/10/04 13:47:43;;;;;;;;;;;24.40;77.50;;;;;;5027744;28;42982;-80
2023/10/04 13:50:09;;;;;;;;;;;24.60;77.50;;;;;;5023787;28;43610;-79
2023/10/04 13:52:34;;;;;;;;;;;23.90;76.40;;;;;;5027335;28;42899;-79
2023/10/04 13:55:00;;;;;;;;;;;24.40;77.10;;;;;;5026492;28;43517;-79
2023/10/04 13:57:25;;;;;;;;;;;24.40;76.60;;;;;;5031687;28;42954;-80
2023/10/04 13:59:51;;;;;;;;;;;24.40;77.00;;;;;;5033019;28;42946;-78
2023/10/04 14:02:19;;;;;;;;;;;24.40;76.40;;;;;;5012786;28;43109;-80
2023/10/04 14:04:45;;;;;;;;;;;24.50;76.10;;;;;;5034530;28;44431;-80
2023/10/04 14:07:11;;;;;;;;;;;24.30;76.60;;;;;;5016465;28;42997;-80
2023/10/04 14:09:37;;;;;;;;;;;24.40;76.10;;;;;;5030180;28;43746;-79
2023/10/04 14:12:03;;;;;;;;;;;24.30;76.40;;;;;;5040197;28;42996;-82
2023/10/04 14:14:32;;;;;;;;;;;24.40;76.20;;;;;;5040720;28;42896;-80
2023/10/04 14:17:04;;;;;;;;;;;24.40;74.20;;;;;;5031577;28;43123;-79
2023/10/04 14:19:31;;;;;;;;;;;24.40;76.10;;;;;;5026522;28;43816;-79